createdAt,value
2018-03-01T00:00:04.459Z,55.60
2018-03-01T00:02:36.436Z,55.60
2018-03-01T00:05:04.724Z,55.50
2018-03-01T00:07:33.021Z,55.80
2018-03-01T00:10:00.581Z,55.70
2018-03-01T00:12:28.110Z,55.70
2018-03-01T00:14:58.400Z,55.50
2018-03-01T00:17:26.111Z,55.50
2018-03-01T00:19:54.406Z,55.60
2018-03-01T00:22:33.689Z,55.60
2018-03-01T00:25:01.219Z,55.80
2018-03-01T00:27:32.715Z,55.90
2018-03-01T00:30:03.059Z,56.20
2018-03-01T00:32:30.840Z,56.10
2018-03-01T00:34:58.363Z,55.80
2018-03-01T00:37:25.925Z,55.70
2018-03-01T00:39:53.459Z,55.70
2018-03-01T00:42:26.094Z,55.80
2018-03-01T00:44:55.586Z,55.70
2018-03-01T00:47:23.878Z,56.10
2018-03-01T00:49:51.395Z,56.10
2018-03-01T00:52:19.333Z,55.90
2018-03-01T00:54:47.836Z,55.80
2018-03-01T00:57:17.320Z,56.00
2018-03-01T00:59:44.878Z,56.00
2018-03-01T01:02:12.401Z,56.10
2018-03-01T01:04:40.689Z,56.20
2018-03-01T01:07:09.355Z,56.10
2018-03-01T01:09:37.653Z,56.50
2018-03-01T01:12:06.176Z,56.50
2018-03-01T01:14:33.728Z,56.70
2018-03-01T01:17:01.249Z,56.80
2018-03-01T01:19:30.817Z,56.80
2018-03-01T01:21:58.478Z,57.10
2018-03-01T01:24:26.950Z,57.20
2018-03-01T01:26:54.495Z,57.10
2018-03-01T01:29:22.059Z,57.30
2018-03-01T01:31:49.576Z,57.50
2018-03-01T01:34:26.282Z,57.50
2018-03-01T01:36:53.861Z,57.30
2018-03-01T01:39:21.668Z,57.10
2018-03-01T01:41:49.375Z,57.20
2018-03-01T01:44:18.389Z,56.80
2018-03-01T01:46:46.719Z,56.80
2018-03-01T01:49:16.525Z,57.10
2018-03-01T01:51:44.049Z,57.40
2018-03-01T01:54:11.597Z,57.10
2018-03-01T01:56:39.272Z,57.40
2018-03-01T01:59:06.809Z,57.60
2018-03-01T02:01:35.312Z,57.50
2018-03-01T02:04:02.860Z,57.50
2018-03-01T02:06:30.386Z,57.40
2018-03-01T02:08:57.918Z,57.40
2018-03-01T02:11:26.654Z,57.70
2018-03-01T02:13:59.143Z,57.70
2018-03-01T02:16:27.645Z,57.70
2018-03-01T02:21:29.051Z,57.90
2018-03-01T02:24:04.660Z,57.60
2018-03-01T02:26:34.514Z,57.70
2018-03-01T02:29:02.921Z,58.40
2018-03-01T02:31:33.505Z,57.90
2018-03-01T02:34:01.873Z,58.20
2018-03-01T02:36:33.039Z,57.80
2018-03-01T02:39:00.583Z,57.60
2018-03-01T02:41:34.186Z,57.50
2018-03-01T02:44:02.493Z,57.60
2018-03-01T02:46:30.028Z,57.60
2018-03-01T02:48:58.037Z,57.40
2018-03-01T02:51:25.581Z,57.00
2018-03-01T02:53:54.103Z,57.40
2018-03-01T02:56:25.684Z,57.50
2018-03-01T02:58:53.991Z,57.90
2018-03-01T03:01:21.524Z,57.80
2018-03-01T03:03:49.854Z,57.70
2018-03-01T03:06:17.514Z,57.70
2018-03-01T03:13:52.965Z,57.80
2018-03-01T03:18:53.239Z,58.10
2018-03-01T03:23:55.044Z,58.40
2018-03-01T03:26:23.582Z,58.60
2018-03-01T03:28:51.289Z,58.50
2018-03-01T03:36:22.984Z,58.20
2018-03-01T03:38:52.351Z,58.70
2018-03-01T03:41:19.893Z,58.60
2018-03-01T03:43:53.786Z,58.50
2018-03-01T03:46:22.342Z,58.50
2018-03-01T03:48:50.993Z,58.40
2018-03-01T03:51:18.598Z,58.10
2018-03-01T03:53:47.972Z,58.00
2018-03-01T03:56:17.317Z,58.00
2018-03-01T03:58:45.063Z,58.10
2018-03-01T04:01:15.532Z,57.80
2018-03-01T04:03:43.201Z,57.80
2018-03-01T04:06:10.883Z,57.90
2018-03-01T04:08:40.449Z,58.20
2018-03-01T04:11:10.024Z,58.50
2018-03-01T04:13:38.483Z,58.40
2018-03-01T04:16:06.981Z,58.20
2018-03-01T04:21:08.373Z,59.40
2018-03-01T04:23:35.892Z,58.80
2018-03-01T04:26:03.426Z,58.20
2018-03-01T04:28:32.978Z,58.20
2018-03-01T04:31:02.268Z,57.80
2018-03-01T04:33:35.670Z,57.90
2018-03-01T04:36:05.006Z,58.10
2018-03-01T04:38:32.504Z,57.70
2018-03-01T04:41:00.572Z,57.70
2018-03-01T04:43:28.149Z,57.80
2018-03-01T04:45:55.693Z,57.70
2018-03-01T04:48:23.271Z,57.70
2018-03-01T04:50:50.814Z,57.50
2018-03-01T04:53:18.348Z,57.70
2018-03-01T04:55:52.673Z,57.50
2018-03-01T04:58:30.147Z,57.20
2018-03-01T05:00:59.730Z,57.40
2018-03-01T05:03:30.054Z,58.00
2018-03-01T05:06:02.343Z,58.30
2018-03-01T05:08:30.899Z,58.30
2018-03-01T05:10:59.276Z,58.20
2018-03-01T05:13:27.096Z,58.20
2018-03-01T05:15:57.642Z,58.50
2018-03-01T05:18:27.313Z,58.50
2018-03-01T05:21:03.494Z,58.40
2018-03-01T05:23:35.855Z,58.70
2018-03-01T05:26:03.855Z,58.20
2018-03-01T05:28:33.107Z,58.30
2018-03-01T05:31:13.890Z,58.20
2018-03-01T05:33:43.833Z,57.90
2018-03-01T05:36:14.949Z,57.90
2018-03-01T05:43:52.012Z,57.70
2018-03-01T05:54:27.875Z,57.60
2018-03-01T05:56:55.957Z,57.80
2018-03-01T06:09:33.312Z,58.40
2018-03-01T06:12:01.101Z,58.10
2018-03-01T06:14:35.592Z,57.80
2018-03-01T06:17:10.678Z,57.60
2018-03-01T06:19:38.931Z,57.50
2018-03-01T06:24:42.364Z,57.50
2018-03-01T06:29:42.770Z,57.80
2018-03-01T06:34:43.136Z,57.60
2018-03-01T06:37:11.800Z,57.50
2018-03-01T06:39:41.266Z,57.50
2018-03-01T06:44:56.001Z,57.90
2018-03-01T06:47:25.338Z,56.60
2018-03-01T06:49:52.884Z,56.60
2018-03-01T06:52:20.422Z,56.80
2018-03-01T06:54:48.289Z,56.80
2018-03-01T06:57:16.897Z,57.20
2018-03-01T06:59:44.577Z,57.30
2018-03-01T07:02:13.152Z,57.00
2018-03-01T07:04:49.365Z,57.10
2018-03-01T07:07:18.078Z,57.10
2018-03-01T07:09:51.580Z,57.10
2018-03-01T07:12:19.291Z,57.10
2018-03-01T07:14:50.836Z,57.10
2018-03-01T07:17:19.600Z,56.80
2018-03-01T07:19:47.708Z,56.90
2018-03-01T07:22:16.400Z,57.10
2018-03-01T07:24:44.060Z,57.10
2018-03-01T07:27:12.425Z,57.00
2018-03-01T07:29:40.222Z,56.60
2018-03-01T07:32:15.758Z,56.60
2018-03-01T07:34:45.482Z,56.70
2018-03-01T07:37:13.246Z,56.30
2018-03-01T07:39:41.896Z,56.00
2018-03-01T07:42:17.389Z,56.00
2018-03-01T07:44:45.475Z,56.20
2018-03-01T07:47:16.946Z,56.00
2018-03-01T07:49:45.365Z,55.60
2018-03-01T07:52:13.177Z,55.60
2018-03-01T07:54:40.856Z,55.50
2018-03-01T07:57:09.237Z,56.00
2018-03-01T07:59:37.481Z,55.90
2018-03-01T08:04:40.665Z,56.40
2018-03-01T08:07:12.414Z,56.40
2018-03-01T08:09:43.686Z,55.90
2018-03-01T08:20:18.536Z,55.20
2018-03-01T08:22:46.125Z,55.60
2018-03-01T08:25:13.801Z,56.00
2018-03-01T08:27:41.796Z,55.60
2018-03-01T08:30:09.465Z,55.00
2018-03-01T08:32:37.821Z,55.20
2018-03-01T08:35:06.411Z,55.20
2018-03-01T08:37:34.169Z,54.90
2018-03-01T08:40:01.757Z,54.50
2018-03-01T08:42:30.209Z,54.10
2018-03-01T08:44:57.795Z,54.10
2018-03-01T08:47:26.137Z,53.20
2018-03-01T08:49:54.500Z,52.70
2018-03-01T08:52:22.194Z,52.60
2018-03-01T08:54:49.773Z,51.80
2018-03-01T08:57:17.409Z,51.70
2018-03-01T08:59:45.087Z,51.90
2018-03-01T09:02:13.604Z,52.00
2018-03-01T09:04:41.531Z,52.00
2018-03-01T09:07:09.120Z,52.10
2018-03-01T09:09:37.036Z,52.00
2018-03-01T09:12:05.433Z,51.90
2018-03-01T09:14:33.017Z,51.10
2018-03-01T09:17:00.602Z,50.20
2018-03-01T09:19:28.292Z,49.40
2018-03-01T09:21:55.830Z,49.60
2018-03-01T09:24:23.420Z,50.10
2018-03-01T09:26:51.415Z,49.90
2018-03-01T09:29:19.020Z,49.90
2018-03-01T09:31:46.607Z,50.40
2018-03-01T09:34:14.341Z,49.50
2018-03-01T09:36:42.712Z,49.50
2018-03-01T09:39:10.312Z,49.50
2018-03-01T09:41:38.058Z,50.80
2018-03-01T09:44:05.902Z,51.00
2018-03-01T09:46:35.988Z,51.10
2018-03-01T09:49:04.015Z,51.10
2018-03-01T09:51:31.687Z,50.30
2018-03-01T09:53:59.291Z,50.50
2018-03-01T09:56:26.899Z,50.10
2018-03-01T09:58:55.250Z,50.10
2018-03-01T10:01:23.649Z,50.60
2018-03-01T10:03:52.350Z,50.60
2018-03-01T10:06:19.905Z,50.00
2018-03-01T10:08:47.484Z,50.00
2018-03-01T10:11:15.559Z,50.10
2018-03-01T10:13:43.176Z,50.10
2018-03-01T10:16:10.823Z,49.80
2018-03-01T10:18:39.234Z,50.40
2018-03-01T10:21:07.574Z,50.90
2018-03-01T10:23:36.010Z,51.10
2018-03-01T10:26:03.909Z,51.20
2018-03-01T10:28:37.914Z,50.00
2018-03-01T10:31:06.223Z,50.00
2018-03-01T10:33:39.433Z,50.50
2018-03-01T10:36:08.139Z,50.70
2018-03-01T10:38:36.734Z,50.70
2018-03-01T10:41:04.935Z,50.10
2018-03-01T10:43:32.700Z,50.30
2018-03-01T10:46:01.353Z,50.10
2018-03-01T10:48:29.783Z,50.40
2018-03-01T10:50:57.476Z,50.40
2018-03-01T10:53:38.443Z,49.90
2018-03-01T10:56:06.123Z,49.90
2018-03-01T10:58:34.497Z,49.40
2018-03-01T11:01:02.819Z,49.50
2018-03-01T11:03:30.502Z,49.80
2018-03-01T11:05:59.023Z,49.30
2018-03-01T11:08:26.652Z,48.80
2018-03-01T11:10:54.623Z,49.00
2018-03-01T11:13:23.346Z,49.70
2018-03-01T11:15:50.946Z,49.20
2018-03-01T11:18:18.599Z,49.30
2018-03-01T11:20:46.990Z,49.90
2018-03-01T11:23:14.587Z,49.90
2018-03-01T11:25:43.078Z,49.80
2018-03-01T11:28:10.646Z,49.70
2018-03-01T11:30:38.224Z,49.60
2018-03-01T11:33:05.938Z,49.50
2018-03-01T11:35:34.366Z,49.80
2018-03-01T11:38:02.590Z,49.60
2018-03-01T11:40:31.269Z,49.70
2018-03-01T11:42:58.834Z,49.80
2018-03-01T11:45:26.402Z,49.70
2018-03-01T11:47:54.374Z,49.30
2018-03-01T11:50:21.909Z,49.50
2018-03-01T11:52:49.431Z,48.90
2018-03-01T11:55:17.066Z,48.80
2018-03-01T11:57:44.627Z,48.00
2018-03-01T12:00:12.202Z,48.00
2018-03-01T12:02:40.548Z,48.00
2018-03-01T12:05:08.113Z,48.00
2018-03-01T12:07:35.663Z,48.30
2018-03-01T12:10:03.626Z,49.10
2018-03-01T12:12:31.150Z,48.50
2018-03-01T12:14:58.692Z,47.90
2018-03-01T12:17:32.278Z,48.60
2018-03-01T12:28:26.865Z,48.20
2018-03-01T12:33:48.602Z,48.00
2018-03-01T12:36:16.218Z,48.00
2018-03-01T12:38:45.596Z,47.80
2018-03-01T12:41:17.746Z,48.20
2018-03-01T12:43:45.292Z,47.60
2018-03-01T12:46:12.866Z,47.50
2018-03-01T12:48:42.445Z,47.90
2018-03-01T12:51:14.682Z,47.80
2018-03-01T12:53:42.258Z,47.80
2018-03-01T12:56:11.573Z,47.30
2018-03-01T12:58:40.831Z,47.10
2018-03-01T13:01:11.394Z,47.10
2018-03-01T13:03:39.832Z,47.50
2018-03-01T13:06:07.387Z,47.40
2018-03-01T13:08:38.759Z,46.80
2018-03-01T13:11:14.522Z,46.60
2018-03-01T13:13:42.498Z,46.70
2018-03-01T13:16:10.126Z,45.90
2018-03-01T13:18:38.770Z,45.00
2018-03-01T13:21:11.387Z,45.10
2018-03-01T13:23:44.124Z,45.20
2018-03-01T13:26:12.423Z,45.00
2018-03-01T13:28:39.974Z,44.90
2018-03-01T13:31:11.186Z,45.60
2018-03-01T13:33:38.710Z,44.80
2018-03-01T13:36:06.241Z,44.20
2018-03-01T13:38:33.846Z,43.70
2018-03-01T13:41:01.395Z,44.30
2018-03-01T13:43:31.497Z,44.20
2018-03-01T13:49:04.333Z,43.10
2018-03-01T13:51:31.957Z,43.50
2018-03-01T13:56:28.353Z,43.30
2018-03-01T13:58:56.845Z,44.10
2018-03-01T14:01:25.256Z,44.00
2018-03-01T14:03:53.313Z,43.70
2018-03-01T14:06:38.582Z,44.00
2018-03-01T14:09:06.172Z,44.00
2018-03-01T14:11:33.783Z,44.30
2018-03-01T14:14:02.950Z,44.90
2018-03-01T14:16:30.535Z,44.80
2018-03-01T14:19:04.768Z,44.70
2018-03-01T14:24:34.223Z,45.00
2018-03-01T14:27:16.656Z,45.20
2018-03-01T14:29:45.168Z,45.20
2018-03-01T14:32:12.961Z,45.20
2018-03-01T14:34:40.584Z,44.90
2018-03-01T14:37:08.317Z,44.80
2018-03-01T14:39:35.877Z,44.40
2018-03-01T14:42:03.502Z,45.00
2018-03-01T14:44:31.259Z,44.10
2018-03-01T14:46:59.582Z,44.30
2018-03-01T14:49:27.924Z,43.90
2018-03-01T14:51:55.705Z,43.90
2018-03-01T14:54:24.038Z,44.70
2018-03-01T14:56:51.619Z,43.60
2018-03-01T14:59:19.234Z,43.20
2018-03-01T15:01:46.842Z,43.70
2018-03-01T15:04:15.453Z,43.40
2018-03-01T15:06:43.095Z,43.90
2018-03-01T15:09:10.659Z,44.20
2018-03-01T15:11:38.263Z,44.20
2018-03-01T15:14:06.831Z,44.70
2018-03-01T15:16:34.599Z,44.40
2018-03-01T15:19:02.173Z,44.40
2018-03-01T15:21:29.918Z,44.20
2018-03-01T15:23:57.491Z,44.00
2018-03-01T15:26:25.499Z,43.40
2018-03-01T15:28:53.397Z,43.40
2018-03-01T15:31:20.961Z,43.90
2018-03-01T15:33:48.563Z,44.00
2018-03-01T15:36:16.187Z,44.30
2018-03-01T15:38:43.957Z,44.30
2018-03-01T15:41:12.297Z,44.10
2018-03-01T15:43:39.982Z,44.10
2018-03-01T15:46:07.595Z,44.30
2018-03-01T15:48:36.008Z,44.10
2018-03-01T15:51:03.645Z,44.10
2018-03-01T15:53:31.287Z,43.80
2018-03-01T15:55:58.849Z,44.00
2018-03-01T15:58:28.309Z,44.40
2018-03-01T16:00:56.696Z,44.80
2018-03-01T16:03:25.338Z,44.80
2018-03-01T16:05:53.498Z,44.60
2018-03-01T16:08:21.309Z,44.50
2018-03-01T16:10:48.935Z,44.20
2018-03-01T16:13:16.679Z,45.20
2018-03-01T16:15:44.269Z,44.30
2018-03-01T16:18:12.601Z,44.90
2018-03-01T16:20:40.326Z,44.90
2018-03-01T16:23:07.905Z,44.90
2018-03-01T16:25:37.209Z,44.90
2018-03-01T16:28:06.838Z,44.90
2018-03-01T16:30:34.489Z,45.70
2018-03-01T16:33:02.060Z,46.10
2018-03-01T16:35:30.617Z,46.00
2018-03-01T16:37:58.971Z,45.60
2018-03-01T16:40:27.313Z,45.50
2018-03-01T16:42:55.890Z,45.60
2018-03-01T16:45:25.248Z,46.20
2018-03-01T16:47:53.307Z,46.20
2018-03-01T16:50:23.404Z,46.50
2018-03-01T16:52:51.775Z,46.30
2018-03-01T16:55:20.566Z,46.90
2018-03-01T16:57:50.302Z,46.90
2018-03-01T17:00:17.879Z,47.00
2018-03-01T17:02:46.236Z,47.40
2018-03-01T17:05:14.011Z,47.30
2018-03-01T17:07:41.612Z,47.10
2018-03-01T17:10:09.202Z,47.40
2018-03-01T17:12:38.819Z,47.30
2018-03-01T17:15:06.481Z,47.20
2018-03-01T17:17:34.094Z,47.70
2018-03-01T17:20:02.033Z,47.80
2018-03-01T17:22:29.632Z,48.00
2018-03-01T17:24:57.191Z,47.80
2018-03-01T17:27:26.377Z,48.40
2018-03-01T17:29:55.595Z,48.30
2018-03-01T17:32:23.935Z,48.30
2018-03-01T17:34:51.561Z,47.80
2018-03-01T17:37:19.226Z,48.50
2018-03-01T17:39:46.805Z,48.30
2018-03-01T17:42:14.476Z,48.00
2018-03-01T17:44:42.851Z,48.20
2018-03-01T17:47:11.382Z,48.20
2018-03-01T17:49:39.007Z,48.40
2018-03-01T17:52:06.632Z,48.40
2018-03-01T17:54:34.325Z,48.60
2018-03-01T17:57:02.047Z,48.70
2018-03-01T17:59:29.626Z,48.30
2018-03-01T18:01:58.062Z,48.20
2018-03-01T18:04:26.478Z,48.20
2018-03-01T18:06:54.862Z,48.30
2018-03-01T18:09:22.520Z,48.10
2018-03-01T18:11:51.126Z,48.50
2018-03-01T18:14:19.684Z,48.80
2018-03-01T18:16:47.332Z,49.30
2018-03-01T18:19:16.954Z,49.20
2018-03-01T18:21:44.595Z,49.10
2018-03-01T18:24:12.260Z,49.10
2018-03-01T18:26:39.941Z,49.20
2018-03-01T18:29:07.555Z,49.40
2018-03-01T18:31:35.897Z,49.40
2018-03-01T18:34:04.315Z,49.60
2018-03-01T18:36:31.921Z,49.40
2018-03-01T18:39:00.247Z,49.30
2018-03-01T18:41:28.200Z,49.30
2018-03-01T18:43:55.846Z,49.40
2018-03-01T18:46:24.445Z,49.40
2018-03-01T18:48:52.454Z,49.40
2018-03-01T18:51:20.038Z,49.40
2018-03-01T18:53:47.583Z,49.20
2018-03-01T18:56:15.216Z,49.70
2018-03-01T18:58:42.794Z,49.90
2018-03-01T19:01:10.559Z,50.00
2018-03-01T19:03:38.131Z,50.10
2018-03-01T19:06:05.822Z,50.40
2018-03-01T19:08:33.443Z,50.20
2018-03-01T19:11:01.986Z,50.30
2018-03-01T19:13:30.501Z,50.20
2018-03-01T19:15:58.129Z,50.10
2018-03-01T19:18:25.898Z,50.70
2018-03-01T19:20:53.818Z,51.00
2018-03-01T19:23:21.375Z,50.90
2018-03-01T19:25:49.290Z,50.80
2018-03-01T19:28:16.926Z,50.80
2018-03-01T19:30:44.479Z,50.90
2018-03-01T19:33:12.471Z,51.00
2018-03-01T19:35:40.050Z,52.00
2018-03-01T19:38:07.646Z,51.60
2018-03-01T19:40:35.266Z,51.80
2018-03-01T19:43:02.864Z,51.80
2018-03-01T19:45:31.524Z,51.80
2018-03-01T19:47:59.122Z,52.30
2018-03-01T19:50:26.849Z,52.20
2018-03-01T19:52:57.379Z,52.10
2018-03-01T19:55:25.910Z,52.10
2018-03-01T19:57:54.007Z,52.50
2018-03-01T20:00:22.412Z,52.20
2018-03-01T20:02:50.084Z,52.10
2018-03-01T20:05:17.651Z,52.50
2018-03-01T20:07:46.265Z,52.60
2018-03-01T20:10:14.756Z,52.80
2018-03-01T20:12:42.336Z,52.80
2018-03-01T20:15:09.928Z,52.90
2018-03-01T20:17:37.565Z,53.00
2018-03-01T20:20:05.151Z,53.10
2018-03-01T20:22:33.053Z,53.10
2018-03-01T20:25:00.772Z,53.20
2018-03-01T20:27:32.316Z,53.30
2018-03-01T20:30:00.700Z,53.80
2018-03-01T20:32:28.307Z,53.90
2018-03-01T20:34:56.889Z,53.70
2018-03-01T20:37:25.265Z,54.20
2018-03-01T20:39:53.978Z,54.50
2018-03-01T20:42:22.350Z,54.60
2018-03-01T20:44:50.023Z,54.60
2018-03-01T20:47:17.905Z,54.70
2018-03-01T20:49:45.578Z,54.70
2018-03-01T20:52:13.186Z,54.70
2018-03-01T20:54:41.582Z,54.70
2018-03-01T20:57:09.186Z,54.70
2018-03-01T20:59:36.756Z,54.90
2018-03-01T21:02:04.486Z,55.00
2018-03-01T21:04:32.227Z,55.10
2018-03-01T21:07:00.631Z,55.00
2018-03-01T21:09:28.347Z,55.10
2018-03-01T21:11:55.979Z,55.10
2018-03-01T21:14:24.730Z,55.20
2018-03-01T21:16:54.008Z,55.70
2018-03-01T21:19:22.409Z,56.00
2018-03-01T21:21:49.982Z,55.90
2018-03-01T21:24:18.680Z,55.70
2018-03-01T21:26:46.238Z,55.60
2018-03-01T21:29:13.811Z,55.90
2018-03-01T21:31:42.153Z,56.20
2018-03-01T21:34:09.849Z,56.20
2018-03-01T21:36:37.448Z,56.30
2018-03-01T21:39:05.800Z,56.60
2018-03-01T21:41:33.365Z,56.70
2018-03-01T21:44:01.736Z,56.50
2018-03-01T21:46:29.421Z,56.50
2018-03-01T21:48:57.066Z,56.90
2018-03-01T21:51:25.572Z,56.30
2018-03-01T21:53:54.482Z,56.80
2018-03-01T21:56:22.280Z,56.90
2018-03-01T21:58:49.933Z,56.70
2018-03-01T22:01:18.387Z,56.60
2018-03-01T22:03:45.929Z,56.60
2018-03-01T22:06:13.483Z,56.90
2018-03-01T22:08:41.896Z,57.30
2018-03-01T22:11:09.493Z,57.40
2018-03-01T22:13:37.851Z,57.60
2018-03-01T22:16:06.213Z,57.50
2018-03-01T22:18:33.796Z,57.50
2018-03-01T22:21:01.347Z,57.60
2018-03-01T22:23:28.962Z,57.70
2018-03-01T22:25:57.282Z,58.20
2018-03-01T22:28:26.584Z,58.30
2018-03-01T22:30:55.323Z,58.40
2018-03-01T22:33:24.618Z,58.10
2018-03-01T22:35:54.427Z,58.20
2018-03-01T22:38:41.516Z,58.00
2018-03-01T22:41:09.109Z,57.90
2018-03-01T22:46:14.125Z,58.60
2018-03-01T22:48:41.736Z,58.60
2018-03-01T22:51:09.366Z,58.40
2018-03-01T22:53:38.447Z,59.20
2018-03-01T22:56:06.938Z,58.70
2018-03-01T22:58:35.529Z,58.80
2018-03-01T23:01:03.998Z,58.70
2018-03-01T23:03:31.570Z,58.90
2018-03-01T23:05:59.191Z,59.20
2018-03-01T23:08:26.753Z,59.50
2018-03-01T23:10:55.180Z,59.80
2018-03-01T23:13:23.330Z,60.00
2018-03-01T23:15:50.983Z,59.80
2018-03-01T23:18:18.538Z,59.80
2018-03-01T23:20:46.145Z,60.20
2018-03-01T23:23:14.489Z,60.80
2018-03-01T23:25:42.825Z,61.00
2018-03-01T23:28:10.592Z,61.00
2018-03-01T23:30:38.173Z,61.10
2018-03-01T23:33:05.730Z,61.10
2018-03-01T23:35:33.680Z,61.20
2018-03-01T23:38:01.343Z,61.50
2018-03-01T23:40:28.890Z,61.50
2018-03-01T23:42:56.580Z,61.20
2018-03-01T23:45:25.109Z,61.40
2018-03-01T23:47:54.250Z,61.20
2018-03-01T23:50:22.147Z,61.10
2018-03-01T23:52:49.734Z,61.40
2018-03-01T23:55:17.333Z,61.30
2018-03-01T23:57:45.100Z,61.40
